NFC9347 SBFZ-SBSV
Flight info
| Callsign | NFC9347 |
|---|---|
| Flight time | 1h 22m |
| Altitude | 32000 |
| Route | UGEPO1A UGEPO UZ19 FROTI UDESI2A |
| Aircraft | B77L/H-SDE1E2E3FGHIJ2J3J4J5M1RWXY/LB1D1 |
Departure
| Time | 2026-05-06 08:17 |
|---|---|
| Airport | Pinto Martins International Airport (SBFZ) |
Arrival
| Time | 2026-05-06 09:39 |
|---|---|
| Airport | Deputado Luiz Eduardo Magalhães International Airport (SBSV) |
| Time | Latitude | Longitude | Altitude | Speed | Heading |
|---|---|---|---|---|---|
| 2026-05-06 08:00 | -3.77828 | -38.53376 | 85 ft | 0 kts | 193° |
| 2026-05-06 08:13 | -3.77832 | -38.53381 | 85 ft | 4 kts | 229° |
| 2026-05-06 08:13 | -3.77806 | -38.53400 | 87 ft | 7 kts | 348° |
| 2026-05-06 08:14 | -3.77750 | -38.53423 | 90 ft | 10 kts | 310° |
| 2026-05-06 08:14 | -3.77725 | -38.53507 | 90 ft | 15 kts | 284° |
| 2026-05-06 08:14 | -3.77690 | -38.53619 | 89 ft | 17 kts | 287° |
| 2026-05-06 08:14 | -3.77658 | -38.53732 | 90 ft | 17 kts | 285° |
| 2026-05-06 08:15 | -3.77627 | -38.53847 | 92 ft | 17 kts | 285° |
| 2026-05-06 08:15 | -3.77596 | -38.53963 | 93 ft | 17 kts | 284° |
| 2026-05-06 08:15 | -3.77566 | -38.54078 | 95 ft | 17 kts | 284° |
| 2026-05-06 08:15 | -3.77535 | -38.54193 | 93 ft | 17 kts | 285° |
| 2026-05-06 08:16 | -3.77505 | -38.54308 | 93 ft | 17 kts | 284° |
| 2026-05-06 08:16 | -3.77422 | -38.54374 | 95 ft | 17 kts | 4° |
| 2026-05-06 08:16 | -3.77353 | -38.54299 | 98 ft | 17 kts | 101° |
| 2026-05-06 08:16 | -3.77433 | -38.53995 | 92 ft | 88 kts | 105° |
| 2026-05-06 08:17 | -3.77676 | -38.53098 | 87 ft | 177 kts | 107° |
| 2026-05-06 08:17 | -3.78041 | -38.51806 | 648 ft | 199 kts | 108° |
| 2026-05-06 08:17 | -3.78416 | -38.50476 | 1759 ft | 200 kts | 108° |
| 2026-05-06 08:17 | -3.78887 | -38.49159 | 2440 ft | 207 kts | 125° |
| 2026-05-06 08:18 | -3.80077 | -38.48284 | 2829 ft | 225 kts | 164° |
| 2026-05-06 08:18 | -3.81675 | -38.48209 | 3429 ft | 240 kts | 180° |
| 2026-05-06 08:18 | -3.83385 | -38.48302 | 4139 ft | 251 kts | 179° |
| 2026-05-06 08:18 | -3.85150 | -38.48404 | 4965 ft | 256 kts | 180° |
| 2026-05-06 08:19 | -3.86945 | -38.48514 | 5697 ft | 262 kts | 180° |
| 2026-05-06 08:19 | -3.88770 | -38.48629 | 6021 ft | 266 kts | 180° |
| 2026-05-06 08:19 | -3.90646 | -38.48745 | 6003 ft | 271 kts | 180° |
| 2026-05-06 08:19 | -3.92508 | -38.48860 | 6020 ft | 272 kts | 181° |
| 2026-05-06 08:20 | -3.94377 | -38.48974 | 6015 ft | 267 kts | 181° |
| 2026-05-06 08:20 | -3.96217 | -38.49084 | 6004 ft | 264 kts | 180° |
| 2026-05-06 08:20 | -3.98056 | -38.49184 | 6107 ft | 267 kts | 180° |
| 2026-05-06 08:20 | -3.99926 | -38.49272 | 6827 ft | 270 kts | 180° |
| 2026-05-06 08:21 | -4.01818 | -38.49357 | 7657 ft | 274 kts | 180° |
| 2026-05-06 08:21 | -4.03742 | -38.49444 | 8427 ft | 280 kts | 180° |
| 2026-05-06 08:21 | -4.05709 | -38.49533 | 9201 ft | 286 kts | 180° |
| 2026-05-06 08:21 | -4.07713 | -38.49624 | 9962 ft | 292 kts | 180° |
| 2026-05-06 08:22 | -4.09774 | -38.49717 | 10533 ft | 305 kts | 180° |
| 2026-05-06 08:22 | -4.11955 | -38.49813 | 10726 ft | 331 kts | 180° |
| 2026-05-06 08:22 | -4.14346 | -38.49920 | 10922 ft | 357 kts | 180° |
| 2026-05-06 08:22 | -4.16876 | -38.50035 | 11249 ft | 375 kts | 180° |
| 2026-05-06 08:23 | -4.19521 | -38.50159 | 11835 ft | 386 kts | 180° |
| 2026-05-06 08:23 | -4.22224 | -38.50285 | 12532 ft | 392 kts | 180° |
| 2026-05-06 08:23 | -4.24963 | -38.50414 | 13313 ft | 396 kts | 180° |
| 2026-05-06 08:23 | -4.27734 | -38.50543 | 14041 ft | 401 kts | 180° |
| 2026-05-06 08:24 | -4.30535 | -38.50673 | 14711 ft | 404 kts | 180° |
| 2026-05-06 08:24 | -4.33354 | -38.50803 | 15392 ft | 408 kts | 180° |
| 2026-05-06 08:24 | -4.36207 | -38.50935 | 16058 ft | 412 kts | 181° |
| 2026-05-06 08:24 | -4.39037 | -38.51066 | 16697 ft | 415 kts | 181° |
| 2026-05-06 08:25 | -4.41936 | -38.51200 | 17330 ft | 419 kts | 181° |
| 2026-05-06 08:25 | -4.44862 | -38.51332 | 17955 ft | 423 kts | 180° |
| 2026-05-06 08:25 | -4.47816 | -38.51391 | 18518 ft | 426 kts | 179° |
| 2026-05-06 08:25 | -4.50794 | -38.51393 | 19031 ft | 430 kts | 178° |
| 2026-05-06 08:26 | -4.53797 | -38.51378 | 19531 ft | 434 kts | 179° |
| 2026-05-06 08:26 | -4.56830 | -38.51364 | 20019 ft | 438 kts | 179° |
| 2026-05-06 08:26 | -4.59892 | -38.51358 | 20512 ft | 442 kts | 179° |
| 2026-05-06 08:26 | -4.62983 | -38.51358 | 20994 ft | 446 kts | 179° |
| 2026-05-06 08:27 | -4.66100 | -38.51364 | 21474 ft | 450 kts | 180° |
| 2026-05-06 08:27 | -4.69247 | -38.51372 | 21941 ft | 454 kts | 180° |
| 2026-05-06 08:27 | -4.72377 | -38.51383 | 22399 ft | 458 kts | 180° |
| 2026-05-06 08:27 | -4.75576 | -38.51393 | 22852 ft | 462 kts | 180° |
| 2026-05-06 08:28 | -4.78802 | -38.51404 | 23263 ft | 467 kts | 180° |
| 2026-05-06 08:28 | -4.82068 | -38.51414 | 23616 ft | 472 kts | 180° |
| 2026-05-06 08:28 | -4.85365 | -38.51424 | 24006 ft | 474 kts | 180° |
| 2026-05-06 08:28 | -4.88665 | -38.51434 | 24500 ft | 474 kts | 180° |
| 2026-05-06 08:29 | -4.91962 | -38.51444 | 24961 ft | 474 kts | 181° |
| 2026-05-06 08:29 | -4.95264 | -38.51454 | 25388 ft | 476 kts | 181° |
| 2026-05-06 08:29 | -4.98541 | -38.51464 | 25782 ft | 478 kts | 181° |
| 2026-05-06 08:29 | -5.01868 | -38.51474 | 26162 ft | 480 kts | 181° |
| 2026-05-06 08:30 | -5.05213 | -38.51484 | 26543 ft | 481 kts | 181° |
| 2026-05-06 08:30 | -5.08570 | -38.51494 | 26941 ft | 483 kts | 181° |
| 2026-05-06 08:30 | -5.11928 | -38.51498 | 27344 ft | 484 kts | 180° |
| 2026-05-06 08:30 | -5.15302 | -38.51449 | 27732 ft | 485 kts | 180° |
| 2026-05-06 08:31 | -5.18683 | -38.51364 | 28100 ft | 487 kts | 179° |
| 2026-05-06 08:31 | -5.22081 | -38.51269 | 28466 ft | 489 kts | 180° |
| 2026-05-06 08:31 | -5.25436 | -38.51176 | 28797 ft | 490 kts | 180° |
| 2026-05-06 08:31 | -5.28853 | -38.51087 | 29133 ft | 492 kts | 180° |
| 2026-05-06 08:32 | -5.32281 | -38.51004 | 29474 ft | 493 kts | 180° |
| 2026-05-06 08:32 | -5.35705 | -38.50924 | 29949 ft | 491 kts | 180° |
| 2026-05-06 08:32 | -5.39097 | -38.50846 | 30476 ft | 486 kts | 180° |
| 2026-05-06 08:32 | -5.42473 | -38.50770 | 30887 ft | 485 kts | 180° |
| 2026-05-06 08:33 | -5.45845 | -38.50693 | 31195 ft | 486 kts | 180° |
| 2026-05-06 08:33 | -5.49228 | -38.50617 | 31512 ft | 487 kts | 180° |
| 2026-05-06 08:33 | -5.52571 | -38.50540 | 31854 ft | 487 kts | 181° |
| 2026-05-06 08:33 | -5.55974 | -38.50462 | 31916 ft | 491 kts | 181° |
| 2026-05-06 08:34 | -5.66176 | -38.50223 | 31981 ft | 485 kts | 180° |
| 2026-05-06 08:35 | -5.72911 | -38.50050 | 31991 ft | 483 kts | 181° |
| 2026-05-06 08:35 | -5.79629 | -38.49875 | 31987 ft | 483 kts | 181° |
| 2026-05-06 08:36 | -5.86355 | -38.49702 | 31990 ft | 483 kts | 181° |
| 2026-05-06 08:36 | -5.93032 | -38.49531 | 31994 ft | 484 kts | 181° |
| 2026-05-06 08:37 | -5.99773 | -38.49358 | 32008 ft | 485 kts | 181° |
| 2026-05-06 08:37 | -6.06518 | -38.49186 | 31999 ft | 485 kts | 181° |
| 2026-05-06 08:38 | -6.13269 | -38.49013 | 31995 ft | 485 kts | 181° |
| 2026-05-06 08:38 | -6.19974 | -38.48841 | 32007 ft | 485 kts | 181° |
| 2026-05-06 08:39 | -6.26718 | -38.48668 | 32007 ft | 485 kts | 181° |
| 2026-05-06 08:39 | -6.33457 | -38.48495 | 32006 ft | 484 kts | 181° |
| 2026-05-06 08:40 | -6.40198 | -38.48321 | 32011 ft | 484 kts | 181° |
| 2026-05-06 08:40 | -6.46938 | -38.48149 | 32008 ft | 484 kts | 181° |
| 2026-05-06 08:41 | -6.53630 | -38.47976 | 32013 ft | 484 kts | 181° |
| 2026-05-06 08:41 | -6.60363 | -38.47807 | 32018 ft | 484 kts | 181° |
| 2026-05-06 08:42 | -6.67090 | -38.47651 | 32017 ft | 484 kts | 181° |
| 2026-05-06 08:42 | -6.73814 | -38.47495 | 32017 ft | 483 kts | 181° |
| 2026-05-06 08:43 | -6.80535 | -38.47337 | 32013 ft | 483 kts | 181° |
| 2026-05-06 08:43 | -6.87211 | -38.47179 | 32025 ft | 483 kts | 181° |
| 2026-05-06 08:44 | -6.93934 | -38.47020 | 32015 ft | 483 kts | 181° |
| 2026-05-06 08:44 | -7.00647 | -38.46862 | 32016 ft | 483 kts | 181° |
| 2026-05-06 08:45 | -7.07363 | -38.46703 | 32018 ft | 483 kts | 181° |
| 2026-05-06 08:45 | -7.14031 | -38.46530 | 32024 ft | 483 kts | 181° |
| 2026-05-06 08:46 | -7.20747 | -38.46345 | 32024 ft | 483 kts | 181° |
| 2026-05-06 08:46 | -7.27461 | -38.46162 | 32028 ft | 483 kts | 181° |
| 2026-05-06 08:47 | -7.34175 | -38.45982 | 32026 ft | 483 kts | 181° |
| 2026-05-06 08:47 | -7.40843 | -38.45802 | 32028 ft | 483 kts | 181° |
| 2026-05-06 08:48 | -7.47557 | -38.45651 | 32031 ft | 483 kts | 182° |
| 2026-05-06 08:48 | -7.54274 | -38.45516 | 32031 ft | 483 kts | 182° |
| 2026-05-06 08:49 | -7.60987 | -38.45370 | 32035 ft | 483 kts | 181° |
| 2026-05-06 08:49 | -7.67707 | -38.45178 | 32035 ft | 483 kts | 182° |
| 2026-05-06 08:50 | -7.74374 | -38.45024 | 32047 ft | 483 kts | 182° |
| 2026-05-06 08:50 | -7.81091 | -38.44875 | 32036 ft | 483 kts | 182° |
| 2026-05-06 08:51 | -7.87799 | -38.44720 | 32044 ft | 482 kts | 182° |
| 2026-05-06 08:51 | -7.93377 | -38.44589 | 32039 ft | 482 kts | 182° |
| 2026-05-06 08:52 | -8.00085 | -38.44430 | 32039 ft | 482 kts | 182° |
| 2026-05-06 08:52 | -8.07874 | -38.44228 | 32041 ft | 482 kts | 182° |
| 2026-05-06 08:53 | -8.14582 | -38.44053 | 32043 ft | 482 kts | 182° |
| 2026-05-06 08:53 | -8.20155 | -38.43910 | 32034 ft | 482 kts | 182° |
| 2026-05-06 08:54 | -8.26867 | -38.43737 | 32044 ft | 482 kts | 182° |
| 2026-05-06 08:54 | -8.33576 | -38.43564 | 32048 ft | 482 kts | 182° |
| 2026-05-06 08:55 | -8.40290 | -38.43390 | 32042 ft | 482 kts | 182° |
| 2026-05-06 08:55 | -8.46954 | -38.43218 | 32039 ft | 482 kts | 182° |
| 2026-05-06 08:56 | -8.53662 | -38.43046 | 32038 ft | 482 kts | 182° |
| 2026-05-06 08:56 | -8.60369 | -38.42882 | 32038 ft | 482 kts | 182° |
| 2026-05-06 08:57 | -8.68168 | -38.42695 | 32043 ft | 483 kts | 182° |
| 2026-05-06 08:57 | -8.73754 | -38.42559 | 32038 ft | 483 kts | 182° |
| 2026-05-06 08:58 | -8.80477 | -38.42395 | 32047 ft | 484 kts | 182° |
| 2026-05-06 08:58 | -8.87212 | -38.42231 | 32043 ft | 485 kts | 182° |
| 2026-05-06 08:59 | -8.93959 | -38.42067 | 32047 ft | 485 kts | 182° |
| 2026-05-06 08:59 | -9.00718 | -38.41902 | 32045 ft | 486 kts | 182° |
| 2026-05-06 09:00 | -9.07436 | -38.41738 | 32042 ft | 486 kts | 182° |
| 2026-05-06 09:00 | -9.14192 | -38.41572 | 32049 ft | 486 kts | 182° |
| 2026-05-06 09:01 | -9.20947 | -38.41407 | 32052 ft | 486 kts | 182° |
| 2026-05-06 09:01 | -9.27705 | -38.41242 | 32049 ft | 485 kts | 182° |
| 2026-05-06 09:02 | -9.34410 | -38.41078 | 32049 ft | 485 kts | 182° |
| 2026-05-06 09:02 | -9.41160 | -38.40914 | 32049 ft | 485 kts | 182° |
| 2026-05-06 09:03 | -9.47903 | -38.40754 | 32048 ft | 485 kts | 182° |
| 2026-05-06 09:03 | -9.54644 | -38.40595 | 32059 ft | 485 kts | 182° |
| 2026-05-06 09:04 | -9.61393 | -38.40434 | 32055 ft | 485 kts | 182° |
| 2026-05-06 09:04 | -9.68091 | -38.40274 | 32055 ft | 485 kts | 182° |
| 2026-05-06 09:05 | -9.74840 | -38.40114 | 32061 ft | 485 kts | 182° |
| 2026-05-06 09:05 | -9.81579 | -38.39949 | 32066 ft | 485 kts | 182° |
| 2026-05-06 09:06 | -9.88338 | -38.39781 | 32055 ft | 485 kts | 182° |
| 2026-05-06 09:06 | -9.95089 | -38.39612 | 32065 ft | 486 kts | 182° |
| 2026-05-06 09:07 | -10.01798 | -38.39444 | 32069 ft | 486 kts | 182° |
| 2026-05-06 09:07 | -10.08559 | -38.39277 | 32079 ft | 486 kts | 182° |
| 2026-05-06 09:08 | -10.15330 | -38.39109 | 32061 ft | 487 kts | 182° |
| 2026-05-06 09:08 | -10.22058 | -38.38941 | 32067 ft | 487 kts | 182° |
| 2026-05-06 09:09 | -10.28835 | -38.38846 | 32071 ft | 485 kts | 186° |
| 2026-05-06 09:09 | -10.35550 | -38.39385 | 32065 ft | 484 kts | 188° |
| 2026-05-06 09:10 | -10.42263 | -38.39995 | 32072 ft | 485 kts | 188° |
| 2026-05-06 09:10 | -10.48989 | -38.40582 | 32074 ft | 485 kts | 188° |
| 2026-05-06 09:11 | -10.55724 | -38.41151 | 32066 ft | 486 kts | 188° |
| 2026-05-06 09:11 | -10.62420 | -38.41709 | 32072 ft | 486 kts | 188° |
| 2026-05-06 09:12 | -10.69166 | -38.42273 | 32075 ft | 487 kts | 188° |
| 2026-05-06 09:12 | -10.75930 | -38.42841 | 31624 ft | 489 kts | 188° |
| 2026-05-06 09:12 | -10.79310 | -38.43125 | 31075 ft | 486 kts | 188° |
| 2026-05-06 09:13 | -10.82668 | -38.43406 | 30494 ft | 483 kts | 187° |
| 2026-05-06 09:13 | -10.86004 | -38.43685 | 29897 ft | 479 kts | 187° |
| 2026-05-06 09:13 | -10.89318 | -38.43963 | 29144 ft | 477 kts | 187° |
| 2026-05-06 09:13 | -10.92584 | -38.44237 | 28391 ft | 477 kts | 187° |
| 2026-05-06 09:14 | -10.95881 | -38.44514 | 27646 ft | 476 kts | 187° |
| 2026-05-06 09:14 | -10.99177 | -38.44792 | 26921 ft | 475 kts | 186° |
| 2026-05-06 09:14 | -11.02461 | -38.45068 | 26211 ft | 473 kts | 186° |
| 2026-05-06 09:14 | -11.05742 | -38.45344 | 25518 ft | 472 kts | 186° |
| 2026-05-06 09:15 | -11.09004 | -38.45619 | 24848 ft | 470 kts | 186° |
| 2026-05-06 09:15 | -11.12257 | -38.45893 | 24174 ft | 468 kts | 186° |
| 2026-05-06 09:15 | -11.15498 | -38.46165 | 23494 ft | 467 kts | 185° |
| 2026-05-06 09:15 | -11.18729 | -38.46437 | 22728 ft | 465 kts | 185° |
| 2026-05-06 09:16 | -11.21945 | -38.46707 | 21989 ft | 463 kts | 185° |
| 2026-05-06 09:16 | -11.25147 | -38.46977 | 21260 ft | 461 kts | 185° |
| 2026-05-06 09:16 | -11.28341 | -38.47245 | 20551 ft | 459 kts | 185° |
| 2026-05-06 09:16 | -11.31475 | -38.47510 | 19864 ft | 457 kts | 185° |
| 2026-05-06 09:17 | -11.34644 | -38.47777 | 19178 ft | 456 kts | 185° |
| 2026-05-06 09:17 | -11.37799 | -38.48043 | 18513 ft | 454 kts | 185° |
| 2026-05-06 09:17 | -11.40944 | -38.48308 | 17773 ft | 453 kts | 184° |
| 2026-05-06 09:17 | -11.44075 | -38.48572 | 17024 ft | 451 kts | 185° |
| 2026-05-06 09:18 | -11.47146 | -38.48831 | 16416 ft | 428 kts | 184° |
| 2026-05-06 09:18 | -11.50026 | -38.49074 | 15695 ft | 403 kts | 184° |
| 2026-05-06 09:18 | -11.52753 | -38.49305 | 14974 ft | 383 kts | 184° |
| 2026-05-06 09:18 | -11.55353 | -38.49525 | 14278 ft | 368 kts | 184° |
| 2026-05-06 09:19 | -11.57851 | -38.49736 | 13576 ft | 363 kts | 184° |
| 2026-05-06 09:19 | -11.60336 | -38.49946 | 12826 ft | 352 kts | 184° |
| 2026-05-06 09:19 | -11.62733 | -38.50150 | 12079 ft | 339 kts | 183° |
| 2026-05-06 09:19 | -11.65047 | -38.50346 | 11339 ft | 328 kts | 182° |
| 2026-05-06 09:20 | -11.67286 | -38.50536 | 10641 ft | 319 kts | 182° |
| 2026-05-06 09:20 | -11.69469 | -38.50720 | 9944 ft | 310 kts | 181° |
| 2026-05-06 09:20 | -11.71593 | -38.50900 | 9188 ft | 303 kts | 181° |
| 2026-05-06 09:20 | -11.73667 | -38.51075 | 8457 ft | 295 kts | 181° |
| 2026-05-06 09:21 | -11.75690 | -38.51246 | 7742 ft | 289 kts | 181° |
| 2026-05-06 09:21 | -11.77643 | -38.51411 | 7031 ft | 282 kts | 181° |
| 2026-05-06 09:21 | -11.79576 | -38.51572 | 6324 ft | 276 kts | 181° |
| 2026-05-06 09:21 | -11.81472 | -38.51733 | 5588 ft | 271 kts | 181° |
| 2026-05-06 09:22 | -11.83332 | -38.51890 | 4873 ft | 266 kts | 181° |
| 2026-05-06 09:22 | -11.85164 | -38.52044 | 4138 ft | 262 kts | 182° |
| 2026-05-06 09:22 | -11.86970 | -38.52197 | 3407 ft | 259 kts | 182° |
| 2026-05-06 09:22 | -11.88755 | -38.52347 | 2959 ft | 259 kts | 182° |
| 2026-05-06 09:23 | -11.90570 | -38.52499 | 2794 ft | 264 kts | 182° |
| 2026-05-06 09:23 | -11.92507 | -38.52659 | 2685 ft | 303 kts | 182° |
| 2026-05-06 09:23 | -11.94708 | -38.52840 | 2575 ft | 325 kts | 183° |
| 2026-05-06 09:23 | -11.96937 | -38.53029 | 2562 ft | 326 kts | 183° |
| 2026-05-06 09:24 | -11.99201 | -38.53225 | 2562 ft | 327 kts | 183° |
| 2026-05-06 09:24 | -12.01471 | -38.53420 | 2569 ft | 328 kts | 183° |
| 2026-05-06 09:24 | -12.03743 | -38.53612 | 2565 ft | 327 kts | 183° |
| 2026-05-06 09:24 | -12.06007 | -38.53804 | 2553 ft | 326 kts | 183° |
| 2026-05-06 09:25 | -12.08264 | -38.53996 | 2548 ft | 325 kts | 183° |
| 2026-05-06 09:25 | -12.10514 | -38.54186 | 2571 ft | 324 kts | 183° |
| 2026-05-06 09:25 | -12.12760 | -38.54376 | 2551 ft | 324 kts | 183° |
| 2026-05-06 09:25 | -12.14997 | -38.54562 | 2568 ft | 321 kts | 183° |
| 2026-05-06 09:26 | -12.17229 | -38.54756 | 2572 ft | 324 kts | 182° |
| 2026-05-06 09:26 | -12.19464 | -38.54938 | 2568 ft | 328 kts | 182° |
| 2026-05-06 09:26 | -12.21744 | -38.55097 | 2562 ft | 328 kts | 182° |
| 2026-05-06 09:26 | -12.24019 | -38.55245 | 2572 ft | 328 kts | 182° |
| 2026-05-06 09:27 | -12.26293 | -38.55387 | 2565 ft | 327 kts | 182° |
| 2026-05-06 09:27 | -12.28563 | -38.55530 | 2562 ft | 326 kts | 182° |
| 2026-05-06 09:27 | -12.30827 | -38.55677 | 2580 ft | 326 kts | 182° |
| 2026-05-06 09:27 | -12.33096 | -38.55824 | 2562 ft | 327 kts | 182° |
| 2026-05-06 09:28 | -12.35370 | -38.55969 | 2560 ft | 327 kts | 182° |
| 2026-05-06 09:28 | -12.37642 | -38.56118 | 2558 ft | 328 kts | 182° |
| 2026-05-06 09:28 | -12.39916 | -38.56267 | 2563 ft | 327 kts | 182° |
| 2026-05-06 09:28 | -12.42158 | -38.56415 | 2563 ft | 327 kts | 182° |
| 2026-05-06 09:29 | -12.44424 | -38.56562 | 2563 ft | 326 kts | 182° |
| 2026-05-06 09:29 | -12.46684 | -38.56710 | 2562 ft | 325 kts | 182° |
| 2026-05-06 09:29 | -12.48943 | -38.56858 | 2565 ft | 325 kts | 182° |
| 2026-05-06 09:29 | -12.51191 | -38.57009 | 2559 ft | 324 kts | 182° |
| 2026-05-06 09:30 | -12.53441 | -38.57158 | 2559 ft | 324 kts | 182° |
| 2026-05-06 09:30 | -12.55685 | -38.57307 | 2568 ft | 323 kts | 182° |
| 2026-05-06 09:30 | -12.57929 | -38.57453 | 2564 ft | 323 kts | 182° |
| 2026-05-06 09:30 | -12.60165 | -38.57600 | 2564 ft | 323 kts | 182° |
| 2026-05-06 09:31 | -12.62378 | -38.57745 | 2565 ft | 323 kts | 181° |
| 2026-05-06 09:31 | -12.64648 | -38.57893 | 2572 ft | 323 kts | 182° |
| 2026-05-06 09:31 | -12.66867 | -38.58040 | 2569 ft | 324 kts | 182° |
| 2026-05-06 09:31 | -12.69123 | -38.58188 | 2565 ft | 326 kts | 181° |
| 2026-05-06 09:32 | -12.71387 | -38.58337 | 2574 ft | 326 kts | 182° |
| 2026-05-06 09:32 | -12.73622 | -38.58210 | 2568 ft | 324 kts | 165° |
| 2026-05-06 09:32 | -12.75669 | -38.57289 | 2552 ft | 320 kts | 149° |
| 2026-05-06 09:32 | -12.77603 | -38.56154 | 2553 ft | 322 kts | 151° |
| 2026-05-06 09:33 | -12.79565 | -38.55084 | 2556 ft | 316 kts | 152° |
| 2026-05-06 09:33 | -12.81458 | -38.54070 | 2536 ft | 298 kts | 151° |
| 2026-05-06 09:33 | -12.83211 | -38.53129 | 2545 ft | 279 kts | 151° |
| 2026-05-06 09:33 | -12.84891 | -38.52282 | 2538 ft | 259 kts | 159° |
| 2026-05-06 09:34 | -12.86587 | -38.51852 | 2555 ft | 246 kts | 168° |
| 2026-05-06 09:34 | -12.88242 | -38.51550 | 2549 ft | 241 kts | 168° |
| 2026-05-06 09:34 | -12.89887 | -38.51239 | 2552 ft | 237 kts | 167° |
| 2026-05-06 09:34 | -12.91421 | -38.50937 | 2531 ft | 218 kts | 167° |
| 2026-05-06 09:35 | -12.92830 | -38.50522 | 2540 ft | 204 kts | 145° |
| 2026-05-06 09:35 | -12.93732 | -38.49494 | 2526 ft | 188 kts | 115° |
| 2026-05-06 09:35 | -12.94134 | -38.48200 | 2551 ft | 193 kts | 92° |
| 2026-05-06 09:35 | -12.93886 | -38.46934 | 2604 ft | 181 kts | 79° |
| 2026-05-06 09:36 | -12.93598 | -38.45678 | 2360 ft | 173 kts | 81° |
| 2026-05-06 09:36 | -12.93354 | -38.44541 | 2055 ft | 162 kts | 81° |
| 2026-05-06 09:36 | -12.93112 | -38.43365 | 1914 ft | 172 kts | 82° |
| 2026-05-06 09:36 | -12.92870 | -38.42202 | 1806 ft | 159 kts | 82° |
| 2026-05-06 09:37 | -12.92628 | -38.41021 | 1599 ft | 172 kts | 81° |
| 2026-05-06 09:37 | -12.92390 | -38.39879 | 1301 ft | 154 kts | 83° |
| 2026-05-06 09:37 | -12.92185 | -38.38872 | 1133 ft | 135 kts | 82° |
| 2026-05-06 09:37 | -12.91990 | -38.37911 | 1034 ft | 143 kts | 83° |
| 2026-05-06 09:38 | -12.91791 | -38.36910 | 843 ft | 145 kts | 82° |
| 2026-05-06 09:38 | -12.91575 | -38.35941 | 688 ft | 140 kts | 80° |
| 2026-05-06 09:38 | -12.91382 | -38.34967 | 401 ft | 141 kts | 79° |
| 2026-05-06 09:38 | -12.91196 | -38.33991 | 154 ft | 138 kts | 81° |
| 2026-05-06 09:39 | -12.91018 | -38.33051 | 51 ft | 128 kts | 79° |
| 2026-05-06 09:39 | -12.90866 | -38.32296 | 52 ft | 83 kts | 78° |
| 2026-05-06 09:39 | -12.90787 | -38.31901 | 50 ft | 30 kts | 78° |
| 2026-05-06 09:39 | -12.90814 | -38.31728 | 52 ft | 26 kts | 144° |
| 2026-05-06 09:40 | -12.90903 | -38.31749 | 53 ft | 13 kts | 237° |
| 2026-05-06 09:40 | -12.90933 | -38.31840 | 53 ft | 13 kts | 257° |
| 2026-05-06 09:40 | -12.90977 | -38.32056 | 55 ft | 16 kts | 258° |
| 2026-05-06 09:41 | -12.91001 | -38.32171 | 50 ft | 16 kts | 258° |
| 2026-05-06 09:41 | -12.91024 | -38.32284 | 57 ft | 16 kts | 259° |
| 2026-05-06 09:41 | -12.91045 | -38.32397 | 50 ft | 17 kts | 259° |
| 2026-05-06 09:41 | -12.91081 | -38.32511 | 53 ft | 17 kts | 218° |
| 2026-05-06 09:42 | -12.91153 | -38.32593 | 50 ft | 15 kts | 255° |
| 2026-05-06 09:42 | -12.91198 | -38.32633 | 49 ft | 9 kts | 184° |
| 2026-05-06 09:42 | -12.91244 | -38.32625 | 51 ft | 0 kts | 169° |